createdAt,value
2023-04-16T00:00:09.297Z,1.00
2023-04-16T00:03:17.409Z,1.00
2023-04-16T00:06:22.506Z,1.00
2023-04-16T00:09:27.092Z,1.00
2023-04-16T00:12:31.528Z,1.00
2023-04-16T00:15:36.107Z,1.00
2023-04-16T00:18:40.798Z,1.00
2023-04-16T00:21:45.952Z,1.00
2023-04-16T00:24:50.748Z,1.00
2023-04-16T00:27:54.828Z,1.00
2023-04-16T00:31:01.045Z,1.00
2023-04-16T00:34:05.028Z,44.00
2023-04-16T00:37:09.648Z,29.10
2023-04-16T00:40:14.372Z,43.00
2023-04-16T00:43:21.395Z,59.60
2023-04-16T00:46:25.907Z,99.90
2023-04-16T00:49:31.279Z,99.90
2023-04-16T00:52:35.466Z,99.90
2023-04-16T00:55:40.685Z,99.90
2023-04-16T00:58:45.308Z,99.90
2023-04-16T01:01:50.524Z,99.90
2023-04-16T01:04:54.996Z,99.90
2023-04-16T01:08:00.628Z,99.90
2023-04-16T01:11:04.691Z,99.90
2023-04-16T01:14:09.602Z,99.90
2023-04-16T01:17:14.211Z,99.90
2023-04-16T01:20:18.397Z,99.90
2023-04-16T01:23:23.064Z,99.90
2023-04-16T01:26:27.319Z,99.90
2023-04-16T01:29:31.829Z,99.90
2023-04-16T01:32:37.471Z,99.90
2023-04-16T01:35:42.014Z,99.90
2023-04-16T01:38:46.283Z,94.20
2023-04-16T01:41:50.758Z,94.30
2023-04-16T01:44:55.249Z,99.90
2023-04-16T01:47:59.531Z,99.90
2023-04-16T01:51:04.937Z,99.90
2023-04-16T01:54:09.243Z,99.90
2023-04-16T01:57:13.481Z,99.90
2023-04-16T02:00:17.932Z,99.90
2023-04-16T02:03:25.534Z,99.90
2023-04-16T02:06:31.572Z,99.90
2023-04-16T02:09:36.813Z,99.90
2023-04-16T02:12:43.763Z,1.00
2023-04-16T02:15:48.748Z,1.00
2023-04-16T02:18:57.274Z,1.00
2023-04-16T02:22:02.698Z,16.10
2023-04-16T02:25:07.333Z,66.10
2023-04-16T02:28:13.190Z,99.90
2023-04-16T02:31:19.635Z,99.90
2023-04-16T02:34:25.684Z,99.90
2023-04-16T02:37:30.181Z,99.90
2023-04-16T02:40:34.404Z,99.90
2023-04-16T02:43:38.763Z,99.90
2023-04-16T02:46:43.247Z,99.90
2023-04-16T02:49:47.162Z,99.90
2023-04-16T02:52:51.795Z,99.90
2023-04-16T02:55:56.583Z,99.90
2023-04-16T02:59:01.035Z,99.90
2023-04-16T03:02:05.870Z,1.00
2023-04-16T03:05:10.465Z,1.00
2023-04-16T03:08:14.710Z,1.00
2023-04-16T03:11:19.940Z,7.50
2023-04-16T03:14:24.314Z,25.60
2023-04-16T03:17:28.684Z,67.40
2023-04-16T03:20:33.441Z,99.90
2023-04-16T03:23:38.236Z,99.90
2023-04-16T03:26:42.566Z,99.90
2023-04-16T03:29:47.786Z,99.90
2023-04-16T03:32:52.333Z,1.00
2023-04-16T03:35:57.420Z,91.10
2023-04-16T03:39:03.962Z,99.90
2023-04-16T03:42:08.394Z,99.90
2023-04-16T03:45:12.879Z,99.90
2023-04-16T03:48:17.467Z,99.90
2023-04-16T03:51:22.114Z,99.90
2023-04-16T03:54:26.816Z,1.00
2023-04-16T03:57:42.659Z,1.00
2023-04-16T04:00:52.817Z,28.00
2023-04-16T04:03:57.644Z,62.70
2023-04-16T04:07:02.024Z,99.90
2023-04-16T04:10:06.778Z,99.90
2023-04-16T04:13:16.122Z,99.90
2023-04-16T04:16:20.835Z,99.90
2023-04-16T04:19:25.274Z,99.90
2023-04-16T04:22:29.393Z,99.90
2023-04-16T04:25:33.926Z,99.90
2023-04-16T04:28:37.962Z,99.90
2023-04-16T04:31:42.594Z,99.90
2023-04-16T04:34:47.194Z,99.90
2023-04-16T04:37:51.775Z,99.90
2023-04-16T04:40:57.806Z,99.90
2023-04-16T04:44:04.589Z,99.90
2023-04-16T04:47:08.943Z,99.90
2023-04-16T04:50:13.578Z,99.90
2023-04-16T04:53:18.768Z,99.90
2023-04-16T04:56:23.099Z,99.90
2023-04-16T04:59:27.516Z,99.90
2023-04-16T05:02:32.268Z,99.90
2023-04-16T05:05:37.177Z,99.90
2023-04-16T05:08:41.662Z,99.90
2023-04-16T05:11:45.773Z,99.90
2023-04-16T05:14:49.909Z,99.90
2023-04-16T05:17:55.885Z,99.90
2023-04-16T05:21:00.334Z,12.80
2023-04-16T05:24:04.853Z,1.00
2023-04-16T05:27:09.132Z,99.90
2023-04-16T05:30:13.498Z,99.90
2023-04-16T05:33:18.088Z,99.90
2023-04-16T05:36:22.512Z,99.90
2023-04-16T05:39:27.060Z,99.90
2023-04-16T05:42:31.410Z,58.30
2023-04-16T05:45:40.827Z,1.00
2023-04-16T05:48:45.396Z,99.90
2023-04-16T05:51:50.851Z,32.50
2023-04-16T05:54:55.166Z,1.00
2023-04-16T05:57:59.809Z,99.90
2023-04-16T06:01:04.474Z,99.90
2023-04-16T06:04:08.780Z,1.00
2023-04-16T06:07:13.113Z,99.90
2023-04-16T06:10:17.298Z,99.90
2023-04-16T06:13:22.114Z,83.50
2023-04-16T06:16:26.560Z,81.30
2023-04-16T06:19:30.982Z,1.20
2023-04-16T06:22:35.248Z,1.00
2023-04-16T06:25:39.384Z,1.00
2023-04-16T06:28:43.637Z,99.90
2023-04-16T06:31:48.425Z,99.90
2023-04-16T06:34:53.010Z,99.90
2023-04-16T06:37:57.358Z,99.90
2023-04-16T06:41:01.335Z,99.90
2023-04-16T06:44:06.209Z,99.90
2023-04-16T06:47:10.795Z,99.90
2023-04-16T06:50:15.615Z,99.90
2023-04-16T06:53:20.089Z,99.90
2023-04-16T06:56:24.565Z,99.90
2023-04-16T06:59:28.483Z,99.90
2023-04-16T07:02:32.993Z,99.90
2023-04-16T07:05:37.397Z,99.90
2023-04-16T07:08:41.981Z,99.90
2023-04-16T07:11:46.552Z,1.00
2023-04-16T07:14:50.957Z,52.30
2023-04-16T07:17:55.639Z,92.20
2023-04-16T07:20:59.913Z,30.90
2023-04-16T07:24:04.695Z,1.00
2023-04-16T07:27:08.686Z,1.00
2023-04-16T07:30:12.826Z,99.90
2023-04-16T07:33:17.049Z,99.90
2023-04-16T07:36:21.471Z,99.90
2023-04-16T07:39:25.402Z,28.80
2023-04-16T07:42:29.377Z,1.00
2023-04-16T07:45:33.328Z,1.00
2023-04-16T07:48:37.422Z,99.90
2023-04-16T07:51:41.475Z,99.90
2023-04-16T07:54:45.888Z,99.90
2023-04-16T07:57:50.563Z,99.90
2023-04-16T08:00:55.075Z,99.90
2023-04-16T08:03:59.410Z,85.60
2023-04-16T08:07:03.926Z,36.10
2023-04-16T08:10:08.639Z,1.00
2023-04-16T08:13:12.868Z,99.90
2023-04-16T08:16:17.226Z,99.90
2023-04-16T08:19:21.590Z,99.90
2023-04-16T08:22:26.354Z,99.90
2023-04-16T08:25:30.563Z,99.90
2023-04-16T08:28:34.691Z,99.90
2023-04-16T08:31:38.943Z,99.90
2023-04-16T08:34:43.509Z,99.90
2023-04-16T08:37:48.097Z,99.90
2023-04-16T08:40:54.225Z,99.90
2023-04-16T08:44:00.007Z,99.90
2023-04-16T08:47:07.076Z,99.90
2023-04-16T08:50:12.056Z,99.90
2023-04-16T08:53:18.363Z,99.90
2023-04-16T08:56:26.520Z,99.90
2023-04-16T08:59:30.906Z,99.90
2023-04-16T09:02:36.081Z,94.50
2023-04-16T09:05:41.768Z,28.90
2023-04-16T09:08:49.008Z,1.00
2023-04-16T09:11:53.904Z,1.00
2023-04-16T09:15:01.124Z,73.00
2023-04-16T09:18:05.743Z,13.50
2023-04-16T09:21:10.074Z,1.00
2023-04-16T09:24:14.332Z,1.00
2023-04-16T09:27:18.909Z,99.90
2023-04-16T09:30:24.375Z,99.90
2023-04-16T09:33:28.719Z,99.90
2023-04-16T09:36:32.977Z,99.90
2023-04-16T09:39:37.288Z,99.90
2023-04-16T09:42:41.797Z,99.90
2023-04-16T09:45:51.064Z,99.90
2023-04-16T09:48:55.746Z,99.90
2023-04-16T09:52:00.305Z,99.90
2023-04-16T09:55:04.376Z,99.90
2023-04-16T09:58:08.712Z,99.90
2023-04-16T10:01:13.186Z,99.90
2023-04-16T10:04:17.854Z,99.90
2023-04-16T10:07:22.288Z,99.90
2023-04-16T10:10:26.874Z,99.90
2023-04-16T10:13:32.047Z,99.90
2023-04-16T10:16:36.765Z,99.90
2023-04-16T10:19:41.707Z,99.90
2023-04-16T10:22:46.230Z,99.90
2023-04-16T10:25:50.564Z,99.90
2023-04-16T10:28:54.826Z,99.90
2023-04-16T10:31:59.636Z,99.90
2023-04-16T10:35:05.060Z,75.50
2023-04-16T10:38:25.548Z,24.30
2023-04-16T10:41:32.378Z,28.50
2023-04-16T10:44:37.183Z,1.00
2023-04-16T10:47:43.073Z,1.00
2023-04-16T10:50:57.399Z,1.00
2023-04-16T10:54:19.403Z,1.00
2023-04-16T10:57:28.900Z,1.00
2023-04-16T11:00:48.548Z,99.90
2023-04-16T11:03:53.246Z,99.90
2023-04-16T11:07:03.634Z,99.90
2023-04-16T11:10:12.720Z,99.90
2023-04-16T11:13:18.316Z,99.90
2023-04-16T11:16:24.459Z,99.90
2023-04-16T11:19:28.745Z,99.90
2023-04-16T11:22:35.268Z,99.90
2023-04-16T11:25:39.307Z,99.90
2023-04-16T11:28:43.456Z,99.90
2023-04-16T11:31:51.745Z,99.90
2023-04-16T11:34:56.099Z,99.90
2023-04-16T11:38:00.539Z,99.90
2023-04-16T11:41:04.668Z,99.90
2023-04-16T11:44:18.348Z,99.90
2023-04-16T11:47:23.395Z,99.90
2023-04-16T11:50:28.634Z,99.90
2023-04-16T11:53:32.874Z,99.90
2023-04-16T11:56:37.373Z,99.90
2023-04-16T12:00:01.977Z,80.90
2023-04-16T12:03:17.148Z,46.70
2023-04-16T12:06:23.248Z,11.30
2023-04-16T12:09:28.595Z,1.00
2023-04-16T12:12:32.724Z,1.00
2023-04-16T12:15:46.994Z,1.00
2023-04-16T12:19:04.093Z,1.00
2023-04-16T12:22:08.116Z,1.00
2023-04-16T12:25:14.029Z,1.00
2023-04-16T12:28:27.988Z,99.90
2023-04-16T12:31:41.873Z,99.90
2023-04-16T12:34:52.421Z,99.90
2023-04-16T12:37:57.328Z,99.90
2023-04-16T12:41:02.372Z,99.90
2023-04-16T12:44:16.544Z,99.90
2023-04-16T12:47:21.328Z,99.90
2023-04-16T12:50:26.018Z,99.90
2023-04-16T12:53:30.404Z,99.90
2023-04-16T12:56:35.859Z,99.90
2023-04-16T12:59:39.990Z,99.90
2023-04-16T13:02:44.976Z,99.90
2023-04-16T13:05:49.273Z,99.90
2023-04-16T13:08:54.096Z,99.90
2023-04-16T13:11:58.320Z,99.90
2023-04-16T13:15:02.856Z,99.90
2023-04-16T13:18:07.333Z,99.90
2023-04-16T13:21:12.336Z,99.90
2023-04-16T13:24:16.883Z,99.90
2023-04-16T13:27:21.637Z,99.90
2023-04-16T13:30:25.781Z,99.90
2023-04-16T13:33:29.999Z,99.90
2023-04-16T13:36:34.382Z,99.90
2023-04-16T13:39:38.926Z,99.90
2023-04-16T13:42:43.222Z,99.90
2023-04-16T13:45:47.731Z,99.90
2023-04-16T13:48:51.897Z,99.90
2023-04-16T13:51:58.619Z,99.90
2023-04-16T13:55:04.366Z,99.90
2023-04-16T13:58:09.454Z,99.90
2023-04-16T14:01:19.714Z,99.90
2023-04-16T14:04:24.404Z,99.90
2023-04-16T14:07:30.403Z,99.90
2023-04-16T14:10:34.969Z,99.90
2023-04-16T14:13:39.524Z,99.90
2023-04-16T14:16:43.764Z,99.90
2023-04-16T14:19:48.297Z,99.90
2023-04-16T14:22:52.651Z,99.90
2023-04-16T14:25:56.804Z,99.90
2023-04-16T14:29:01.278Z,99.90
2023-04-16T14:32:06.828Z,99.90
2023-04-16T14:35:11.587Z,99.90
2023-04-16T14:38:16.274Z,99.90
2023-04-16T14:41:20.745Z,99.90
2023-04-16T14:44:25.530Z,99.90
2023-04-16T14:47:29.478Z,99.90
2023-04-16T14:50:43.557Z,99.90
2023-04-16T14:53:48.078Z,99.90
2023-04-16T14:56:52.342Z,99.90
2023-04-16T14:59:57.009Z,99.90
2023-04-16T15:03:01.904Z,99.90
2023-04-16T15:06:08.729Z,99.90
2023-04-16T15:09:13.357Z,99.90
2023-04-16T15:12:19.153Z,99.90
2023-04-16T15:15:23.450Z,99.90
2023-04-16T15:18:29.118Z,99.90
2023-04-16T15:21:33.453Z,99.90
2023-04-16T15:24:38.007Z,99.90
2023-04-16T15:27:42.554Z,99.90
2023-04-16T15:30:46.678Z,99.90
2023-04-16T15:33:52.245Z,99.90
2023-04-16T15:36:56.381Z,99.90
2023-04-16T15:40:00.505Z,99.90
2023-04-16T15:43:06.040Z,99.90
2023-04-16T15:46:10.835Z,99.90
2023-04-16T15:49:15.602Z,99.90
2023-04-16T15:52:20.371Z,99.90
2023-04-16T15:55:26.182Z,99.90
2023-04-16T15:58:30.484Z,99.90
2023-04-16T16:01:34.747Z,99.90
2023-04-16T16:04:46.005Z,1.00
2023-04-16T16:07:50.530Z,1.00
2023-04-16T16:10:55.022Z,1.00
2023-04-16T16:14:02.790Z,99.90
2023-04-16T16:17:07.032Z,99.90
2023-04-16T16:20:12.781Z,99.90
2023-04-16T16:23:17.077Z,99.90
2023-04-16T16:26:22.929Z,99.90
2023-04-16T16:29:27.419Z,99.90
2023-04-16T16:32:31.359Z,99.90
2023-04-16T16:35:36.178Z,1.00
2023-04-16T16:38:41.103Z,34.80
2023-04-16T16:41:45.641Z,99.90
2023-04-16T16:44:49.938Z,99.90
2023-04-16T16:47:54.782Z,99.90
2023-04-16T16:50:59.122Z,99.90
2023-04-16T16:54:03.543Z,1.00
2023-04-16T16:57:08.059Z,1.00
2023-04-16T17:00:16.177Z,6.20
2023-04-16T17:03:20.862Z,26.70
2023-04-16T17:06:26.668Z,6.60
2023-04-16T17:09:31.140Z,1.00
2023-04-16T17:12:35.478Z,1.00
2023-04-16T17:15:39.323Z,1.00
2023-04-16T17:18:43.796Z,18.40
2023-04-16T17:21:48.213Z,27.90
2023-04-16T17:24:53.092Z,25.60
2023-04-16T17:27:57.586Z,53.00
2023-04-16T17:31:02.592Z,92.30
2023-04-16T17:34:06.795Z,99.90
2023-04-16T17:37:11.369Z,99.90
2023-04-16T17:40:18.106Z,99.90
2023-04-16T17:43:23.984Z,99.90
2023-04-16T17:46:28.379Z,99.90
2023-04-16T17:49:32.709Z,99.90
2023-04-16T17:52:37.788Z,1.00
2023-04-16T17:55:49.945Z,1.00
2023-04-16T17:58:54.023Z,1.00
2023-04-16T18:01:58.498Z,99.90
2023-04-16T18:05:03.824Z,99.90
2023-04-16T18:08:08.364Z,99.90
2023-04-16T18:11:13.059Z,99.90
2023-04-16T18:14:19.952Z,99.90
2023-04-16T18:17:24.337Z,99.90
2023-04-16T18:20:28.898Z,99.90
2023-04-16T18:23:33.705Z,99.90
2023-04-16T18:26:40.047Z,99.90
2023-04-16T18:29:45.683Z,99.90
2023-04-16T18:33:11.525Z,99.90
2023-04-16T18:36:14.653Z,99.90
2023-04-16T18:39:19.331Z,99.90
2023-04-16T18:42:23.612Z,99.90
2023-04-16T18:45:28.369Z,99.90
2023-04-16T18:48:32.574Z,99.90
2023-04-16T18:51:37.428Z,93.20
2023-04-16T18:54:42.104Z,66.00
2023-04-16T18:57:46.550Z,47.00
2023-04-16T19:00:55.182Z,39.70
2023-04-16T19:03:59.327Z,22.20
2023-04-16T19:07:03.952Z,26.80
2023-04-16T19:10:08.306Z,40.30
2023-04-16T19:13:12.783Z,43.80
2023-04-16T19:16:17.290Z,53.00
2023-04-16T19:19:21.549Z,62.20
2023-04-16T19:22:26.224Z,63.90
2023-04-16T19:25:34.114Z,54.00
2023-04-16T19:28:38.797Z,34.70
2023-04-16T19:31:43.513Z,41.20
2023-04-16T19:34:48.312Z,45.20
2023-04-16T19:37:52.740Z,40.20
2023-04-16T19:40:57.508Z,32.50
2023-04-16T19:44:01.817Z,27.00
2023-04-16T19:47:06.541Z,23.70
2023-04-16T19:50:11.125Z,28.50
2023-04-16T19:53:17.176Z,27.30
2023-04-16T19:56:21.820Z,19.40
2023-04-16T19:59:28.551Z,21.70
2023-04-16T20:02:32.879Z,17.10
2023-04-16T20:05:37.249Z,27.30
2023-04-16T20:08:42.224Z,89.80
2023-04-16T20:11:47.075Z,99.90
2023-04-16T20:14:51.431Z,99.90
2023-04-16T20:17:56.358Z,99.90
2023-04-16T20:21:03.354Z,99.90
2023-04-16T20:24:10.469Z,99.90
2023-04-16T20:27:15.143Z,99.90
2023-04-16T20:30:22.447Z,99.90
2023-04-16T20:33:27.037Z,99.90
2023-04-16T20:36:31.816Z,99.90
2023-04-16T20:39:36.155Z,1.00
2023-04-16T20:42:40.821Z,1.00
2023-04-16T20:45:46.168Z,99.90
2023-04-16T20:48:51.232Z,43.10
2023-04-16T20:51:55.390Z,18.80
2023-04-16T20:54:59.876Z,99.90
2023-04-16T20:58:03.920Z,1.00
2023-04-16T21:01:08.473Z,1.00
2023-04-16T21:04:13.267Z,1.00
2023-04-16T21:07:17.894Z,99.50
2023-04-16T21:10:22.572Z,99.90
2023-04-16T21:13:26.584Z,16.90
2023-04-16T21:16:31.370Z,99.90
2023-04-16T21:19:35.726Z,1.00
2023-04-16T21:22:39.781Z,99.90
2023-04-16T21:25:43.667Z,1.00
2023-04-16T21:28:48.298Z,1.00
2023-04-16T21:31:52.477Z,99.90
2023-04-16T21:34:57.221Z,99.90
2023-04-16T21:38:01.729Z,99.90
2023-04-16T21:41:06.415Z,99.90
2023-04-16T21:44:10.607Z,1.00
2023-04-16T21:47:15.015Z,1.00
2023-04-16T21:50:19.328Z,22.30
2023-04-16T21:53:23.809Z,99.90
2023-04-16T21:56:27.970Z,99.90
2023-04-16T21:59:32.521Z,99.90
2023-04-16T22:02:37.045Z,1.00
2023-04-16T22:05:41.577Z,3.60
2023-04-16T22:08:46.298Z,29.20
2023-04-16T22:11:52.385Z,77.80
2023-04-16T22:15:02.470Z,99.90
2023-04-16T22:18:09.581Z,99.90
2023-04-16T22:21:14.153Z,99.50
2023-04-16T22:24:18.437Z,1.00
2023-04-16T22:27:22.928Z,1.00
2023-04-16T22:30:27.435Z,99.90
2023-04-16T22:33:31.568Z,99.90
2023-04-16T22:36:35.737Z,29.20
2023-04-16T22:39:39.914Z,49.20
2023-04-16T22:42:44.154Z,63.00
2023-04-16T22:45:48.638Z,99.90
2023-04-16T22:48:53.442Z,99.90
2023-04-16T22:51:57.791Z,99.90
2023-04-16T22:55:01.815Z,44.10
2023-04-16T22:58:06.294Z,1.00
2023-04-16T23:01:10.482Z,1.00
2023-04-16T23:04:16.455Z,99.90
2023-04-16T23:07:21.018Z,1.00
2023-04-16T23:10:25.238Z,75.80
2023-04-16T23:13:29.760Z,45.70
2023-04-16T23:16:33.833Z,99.90
2023-04-16T23:19:38.397Z,99.90
2023-04-16T23:22:42.557Z,99.90
2023-04-16T23:25:47.296Z,99.90
2023-04-16T23:28:51.604Z,99.90
2023-04-16T23:31:55.814Z,99.90
2023-04-16T23:35:00.662Z,99.90
2023-04-16T23:38:05.433Z,99.90
2023-04-16T23:41:09.800Z,97.60
2023-04-16T23:44:14.500Z,99.90
2023-04-16T23:47:18.487Z,99.90
2023-04-16T23:50:23.219Z,99.90
2023-04-16T23:53:27.314Z,99.90
2023-04-16T23:56:32.059Z,99.90
2023-04-16T23:59:36.451Z,71.00
